Oak Island, Minnesota
Current Conditions -  °F | °C
As of 9:54 PM on Saturday 22 Nov 2014 (Local Time) from KFGN Reporting Station
Broken Clouds Broken Clouds  
Wind Chill: 26°   Ceiling: 10000
Heat Index: 34°   Visibility: 10mi
Dew Point: 30°   Wind: 10mph
Humidity: 87%   Direction: 110°ESE
Pressure: 29.39"   Gusts: 18mph
Location:  49.3°N, 94.86°W
Report Text: KFGN 230354Z AUTO 11009G16KT 10SM BKN100 01/M01 A2939 RMK AO2
Loading
Personal Weather Stations






























Interactive Weather Map New forecast layout! Learn more

10-Day Weather Forecast

Advertisements
Track Severe Weather on mobile